^^
Saratoga-Weather Station Historical Data
Daily Summary for May 15, 2020 Units:  Both    English   Metric
Daily Weekly Monthly Yearly Custom
  High: Low: Average:
Temperature: 50.9 °F /  10.5 °C 42.1 °F /  5.6 °C 46 °F /  7.8 °C
Dew Point: 49.8 °F /  9.9 °C 40.5 °F /  4.7 °C 45.1 °F /  7.3 °C
Humidity: 98% 92% 96%
Wind Speed: 4.9mph /  7.9km/h - 0.6mph /  0.9km/h
Wind Gust: 11mph /  17.7km/h - -
Wind- - South
Pressure: 30 in /  1014.9 hPa 29.8 in /  1008.5 hPa -
Precipitation: 0.46 in /  11.7 mm    
Historical Graphs
 
 
Tabular Data for May 15, 2020
Time Temperature Dew Point Pressure Wind Wind Speed Wind Gust Humidity Rainfall Rate (Hourly) solar
00:00 42.6 °F /  5.9 °C 40.5 °F /  4.7 °C 29.8in /  1009.5hPa Calm     92% 0in /  0.0mm 0 W/m2
00:05 42.6 °F /  5.9 °C 40.5 °F /  4.7 °C 29.8in /  1009.5hPa Calm     92% 0in /  0.0mm 0 W/m2
00:10 42.6 °F /  5.9 °C 40.5 °F /  4.7 °C 29.8in /  1009.5hPa Calm     92% 0.01in /  0.2mm 0 W/m2
00:15 42.6 °F /  5.9 °C 40.5 °F /  4.7 °C 29.8in /  1009.5hPa Calm     92% 0.01in /  0.2mm 0 W/m2
00:20 43 °F /  6.1 °C 40.8 °F /  4.9 °C 29.8in /  1009.5hPa Calm     92% 0.02in /  0.5mm 0 W/m2
00:25 43 °F /  6.1 °C 41.2 °F /  5.1 °C 29.8in /  1009.5hPa Calm     93% 0.02in /  0.5mm 0 W/m2
00:30 43 °F /  6.1 °C 41.2 °F /  5.1 °C 29.8in /  1009.5hPa Calm     93% 0.02in /  0.5mm 0 W/m2
00:35 42.8 °F /  6 °C 41 °F /  5 °C 29.8in /  1009.5hPa Calm     93% 0.02in /  0.5mm 0 W/m2
00:40 42.8 °F /  6 °C 41.2 °F /  5.1 °C 29.8in /  1009.5hPa Calm     94% 0.03in /  0.8mm 0 W/m2
00:45 42.6 °F /  5.9 °C 41 °F /  5 °C 29.8in /  1009.5hPa Calm     94% 0.03in /  0.8mm 0 W/m2
00:50 42.6 °F /  5.9 °C 41 °F /  5 °C 29.8in /  1009.5hPa Calm     94% 0.04in /  1.0mm 0 W/m2
00:55 42.6 °F /  5.9 °C 41 °F /  5 °C 29.8in /  1009.5hPa South 0.9mph /  1.4km/h 1mph /  1.6km/h 94% 0.05in /  1.3mm 0 W/m2
01:01 42.6 °F /  5.9 °C 41 °F /  5 °C 29.8in /  1009.5hPa Calm     94% 0.05in /  1.3mm 0 W/m2
01:06 42.6 °F /  5.9 °C 41 °F /  5 °C 29.8in /  1009.5hPa South 0.9mph /  1.4km/h 1mph /  1.6km/h 94% 0.06in /  1.5mm 0 W/m2
01:11 42.6 °F /  5.9 °C 41.4 °F /  5.2 °C 29.8in /  1009.5hPa Calm   1mph /  1.6km/h 95% 0.06in /  1.5mm 0 W/m2
01:16 42.6 °F /  5.9 °C 41.4 °F /  5.2 °C 29.8in /  1009.5hPa Calm     95% 0.06in /  1.5mm 0 W/m2
01:21 42.6 °F /  5.9 °C 41.4 °F /  5.2 °C 29.8in /  1009.5hPa Calm     95% 0.06in /  1.5mm 0 W/m2
01:26 42.4 °F /  5.8 °C 41.2 °F /  5.1 °C 29.8in /  1009.5hPa Calm     95% 0.06in /  1.5mm 0 W/m2
01:31 42.4 °F /  5.8 °C 41.2 °F /  5.1 °C 29.8in /  1009.5hPa Calm     95% 0.06in /  1.5mm 0 W/m2
01:36 42.4 °F /  5.8 °C 41.2 °F /  5.1 °C 29.8in /  1009.5hPa Calm     95% 0.06in /  1.5mm 0 W/m2
01:41 42.4 °F /  5.8 °C 41.2 °F /  5.1 °C 29.8in /  1009.5hPa Calm     95% 0.06in /  1.5mm 0 W/m2
01:46 42.4 °F /  5.8 °C 41.2 °F /  5.1 °C 29.8in /  1009.5hPa Calm     95% 0.06in /  1.5mm 0 W/m2
01:51 42.4 °F /  5.8 °C 41.2 °F /  5.1 °C 29.8in /  1009.5hPa Calm     95% 0.06in /  1.5mm 0 W/m2
01:56 42.4 °F /  5.8 °C 41.2 °F /  5.1 °C 29.8in /  1009.5hPa Calm     95% 0.06in /  1.5mm 0 W/m2
02:01 42.6 °F /  5.9 °C 41.5 °F /  5.3 °C 29.8in /  1009.5hPa Calm     96% 0.06in /  1.5mm 0 W/m2
02:06 42.6 °F /  5.9 °C 41.4 °F /  5.2 °C 29.8in /  1009.5hPa Calm     95% 0.06in /  1.5mm 0 W/m2
02:11 42.6 °F /  5.9 °C 41.5 °F /  5.3 °C 29.8in /  1009.5hPa Calm     96% 0.05in /  1.3mm 0 W/m2
02:16 42.6 °F /  5.9 °C 41.5 °F /  5.3 °C 29.8in /  1009.5hPa Calm     96% 0.05in /  1.3mm 0 W/m2
02:21 42.6 °F /  5.9 °C 41.5 °F /  5.3 °C 29.8in /  1009.1hPa Calm     96% 0.05in /  1.3mm 0 W/m2
02:26 42.6 °F /  5.9 °C 41.5 °F /  5.3 °C 29.8in /  1009.5hPa Calm     96% 0.05in /  1.3mm 0 W/m2
02:31 42.6 °F /  5.9 °C 41.5 °F /  5.3 °C 29.8in /  1009.1hPa Calm     96% 0.05in /  1.3mm 0 W/m2
02:36 42.6 °F /  5.9 °C 41.5 °F /  5.3 °C 29.8in /  1009.1hPa Calm     96% 0.06in /  1.5mm 0 W/m2
02:41 42.8 °F /  6 °C 41.7 °F /  5.4 °C 29.8in /  1009.1hPa Calm     96% 0.05in /  1.3mm 0 W/m2
02:46 42.8 °F /  6 °C 41.7 °F /  5.4 °C 29.8in /  1009.1hPa Calm     96% 0.05in /  1.3mm 0 W/m2
02:51 42.8 °F /  6 °C 41.7 °F /  5.4 °C 29.8in /  1009.1hPa Calm     96% 0.04in /  1.0mm 0 W/m2
02:56 43 °F /  6.1 °C 41.9 °F /  5.5 °C 29.8in /  1009.1hPa Calm     96% 0.05in /  1.3mm 0 W/m2
03:01 43 °F /  6.1 °C 41.9 °F /  5.5 °C 29.8in /  1009.1hPa Calm     96% 0.05in /  1.3mm 0 W/m2
03:06 43 °F /  6.1 °C 41.9 °F /  5.5 °C 29.8in /  1009.1hPa Calm     96% 0.04in /  1.0mm 0 W/m2
03:11 43.2 °F /  6.2 °C 42.1 °F /  5.6 °C 29.8in /  1009.1hPa Calm     96% 0.04in /  1.0mm 0 W/m2
03:16 43.2 °F /  6.2 °C 42.1 °F /  5.6 °C 29.8in /  1008.8hPa Calm     96% 0.03in /  0.8mm 0 W/m2
03:21 43.2 °F /  6.2 °C 42.1 °F /  5.6 °C 29.8in /  1009.1hPa Calm     96% 0.04in /  1.0mm 0 W/m2
03:26 43.3 °F /  6.3 °C 42.3 °F /  5.7 °C 29.8in /  1009.1hPa Calm     96% 0.03in /  0.8mm 0 W/m2
03:31 43.3 °F /  6.3 °C 42.3 °F /  5.7 °C 29.8in /  1009.1hPa Calm     96% 0.02in /  0.5mm 0 W/m2
03:36 43.3 °F /  6.3 °C 42.3 °F /  5.7 °C 29.8in /  1009.1hPa Calm     96% 0.02in /  0.5mm 0 W/m2
03:41 43.5 °F /  6.4 °C 42.4 °F /  5.8 °C 29.8in /  1009.1hPa Calm     96% 0.02in /  0.5mm 0 W/m2
03:46 43.5 °F /  6.4 °C 42.8 °F /  6 °C 29.8in /  1009.1hPa Calm     97% 0.03in /  0.8mm 0 W/m2
03:51 43.5 °F /  6.4 °C 42.8 °F /  6 °C 29.8in /  1008.8hPa Calm     97% 0.03in /  0.8mm 0 W/m2
03:56 43.7 °F /  6.5 °C 42.6 °F /  5.9 °C 29.8in /  1008.8hPa Calm     96% 0.02in /  0.5mm 0 W/m2
04:01 43.7 °F /  6.5 °C 42.6 °F /  5.9 °C 29.8in /  1008.8hPa Calm     96% 0.02in /  0.5mm 0 W/m2
04:06 43.9 °F /  6.6 °C 42.8 °F /  6 °C 29.8in /  1008.8hPa Calm     96% 0.03in /  0.8mm 0 W/m2
04:11 43.9 °F /  6.6 °C 43.2 °F /  6.2 °C 29.8in /  1008.8hPa Calm     97% 0.03in /  0.8mm 0 W/m2
04:16 44.1 °F /  6.7 °C 43.3 °F /  6.3 °C 29.8in /  1008.8hPa Calm     97% 0.03in /  0.8mm 0 W/m2
04:21 44.1 °F /  6.7 °C 43.3 °F /  6.3 °C 29.8in /  1009.1hPa Calm     97% 0.02in /  0.5mm 0 W/m2
04:26 44.2 °F /  6.8 °C 43.5 °F /  6.4 °C 29.8in /  1009.1hPa Calm   2mph /  3.2km/h 97% 0.02in /  0.5mm 0 W/m2
04:31 44.2 °F /  6.8 °C 43.5 °F /  6.4 °C 29.8in /  1009.1hPa Calm     97% 0.03in /  0.8mm 0 W/m2
04:36 44.2 °F /  6.8 °C 43.5 °F /  6.4 °C 29.8in /  1008.8hPa Calm   2mph /  3.2km/h 97% 0.02in /  0.5mm 0 W/m2
04:41 44.4 °F /  6.9 °C 43.7 °F /  6.5 °C 29.8in /  1008.8hPa Calm     97% 0.02in /  0.5mm 0 W/m2
04:46 44.4 °F /  6.9 °C 43.7 °F /  6.5 °C 29.8in /  1008.8hPa Calm     97% 0.02in /  0.5mm 0 W/m2
04:51 44.4 °F /  6.9 °C 43.7 °F /  6.5 °C 29.8in /  1008.8hPa Calm     97% 0.02in /  0.5mm 0 W/m2
04:56 44.4 °F /  6.9 °C 43.7 °F /  6.5 °C 29.8in /  1008.8hPa Calm     97% 0.03in /  0.8mm 0 W/m2
05:01 44.4 °F /  6.9 °C 43.7 °F /  6.5 °C 29.8in /  1008.8hPa Calm     97% 0.03in /  0.8mm 0 W/m2
05:06 44.4 °F /  6.9 °C 43.7 °F /  6.5 °C 29.8in /  1008.5hPa Calm     97% 0.02in /  0.5mm 0 W/m2
05:11 44.4 °F /  6.9 °C 43.7 °F /  6.5 °C 29.8in /  1008.5hPa Calm     97% 0.02in /  0.5mm 0 W/m2
05:16 44.4 °F /  6.9 °C 43.7 °F /  6.5 °C 29.8in /  1008.5hPa Calm     97% 0.03in /  0.8mm 0 W/m2
05:21 44.4 °F /  6.9 °C 43.7 °F /  6.5 °C 29.8in /  1008.5hPa East 2mph /  3.2km/h 2mph /  3.2km/h 97% 0.03in /  0.8mm 0 W/m2
05:26 44.4 °F /  6.9 °C 43.7 °F /  6.5 °C 29.8in /  1008.5hPa East 0.9mph /  1.4km/h 1mph /  1.6km/h 97% 0.03in /  0.8mm 0 W/m2
05:31 44.6 °F /  7 °C 43.9 °F /  6.6 °C 29.8in /  1008.5hPa Calm     97% 0.02in /  0.5mm 0 W/m2
05:36 44.8 °F /  7.1 °C 44.1 °F /  6.7 °C 29.8in /  1008.5hPa Calm     97% 0.02in /  0.5mm 0 W/m2
05:41 44.8 °F /  7.1 °C 44.1 °F /  6.7 °C 29.8in /  1008.5hPa Calm     97% 0.03in /  0.8mm 0 W/m2
05:46 44.8 °F /  7.1 °C 44.1 °F /  6.7 °C 29.8in /  1008.5hPa Calm     97% 0.02in /  0.5mm 0 W/m2
05:51 44.8 °F /  7.1 °C 44.1 °F /  6.7 °C 29.8in /  1008.5hPa Calm     97% 0.02in /  0.5mm 0 W/m2
05:56 44.8 °F /  7.1 °C 44.1 °F /  6.7 °C 29.8in /  1008.5hPa Calm     97% 0.02in /  0.5mm 0 W/m2
06:01 44.8 °F /  7.1 °C 44.1 °F /  6.7 °C 29.8in /  1008.5hPa East 0.9mph /  1.4km/h 1mph /  1.6km/h 97% 0.02in /  0.5mm 0 W/m2
06:06 45 °F /  7.2 °C 44.2 °F /  6.8 °C 29.8in /  1008.5hPa East 0.9mph /  1.4km/h 1mph /  1.6km/h 97% 0.02in /  0.5mm 0 W/m2
06:11 45 °F /  7.2 °C 44.2 °F /  6.8 °C 29.8in /  1008.5hPa Calm   1mph /  1.6km/h 97% 0.02in /  0.5mm 0 W/m2
06:16 45 °F /  7.2 °C 44.2 °F /  6.8 °C 29.8in /  1008.5hPa Calm   1mph /  1.6km/h 97% 0.01in /  0.2mm 0 W/m2
06:21 45 °F /  7.2 °C 44.2 °F /  6.8 °C 29.8in /  1008.5hPa Calm     97% 0.01in /  0.2mm 0 W/m2
06:26 45 °F /  7.2 °C 44.2 °F /  6.8 °C 29.8in /  1008.5hPa Calm     97% 0.01in /  0.2mm 0 W/m2
06:31 45 °F /  7.2 °C 44.2 °F /  6.8 °C 29.8in /  1008.5hPa Calm   1mph /  1.6km/h 97% 0.01in /  0.2mm 0 W/m2
06:36 45 °F /  7.2 °C 44.2 °F /  6.8 °C 29.8in /  1008.5hPa Calm     97% 0.01in /  0.2mm 0 W/m2
06:41 45.1 °F /  7.3 °C 44.4 °F /  6.9 °C 29.8in /  1008.5hPa Calm     97% 0in /  0.0mm 0 W/m2
06:46 45.1 °F /  7.3 °C 44.4 °F /  6.9 °C 29.8in /  1008.5hPa Calm   2mph /  3.2km/h 97% 0in /  0.0mm 0 W/m2
06:51 45.1 °F /  7.3 °C 44.4 °F /  6.9 °C 29.8in /  1008.5hPa Calm     97% 0in /  0.0mm 0 W/m2
06:56 45.1 °F /  7.3 °C 44.4 °F /  6.9 °C 29.8in /  1008.5hPa Calm   1mph /  1.6km/h 97% 0in /  0.0mm 0 W/m2
07:01 45.3 °F /  7.4 °C 44.6 °F /  7 °C 29.8in /  1008.5hPa ENE 0.9mph /  1.4km/h 2mph /  3.2km/h 97% 0in /  0.0mm 0 W/m2
07:06 45.3 °F /  7.4 °C 44.6 °F /  7 °C 29.8in /  1008.5hPa Calm     97% 0in /  0.0mm 0 W/m2
07:11 45.3 °F /  7.4 °C 44.6 °F /  7 °C 29.8in /  1008.5hPa ENE 0.9mph /  1.4km/h 2mph /  3.2km/h 97% 0in /  0.0mm 0 W/m2
07:16 45.3 °F /  7.4 °C 44.6 °F /  7 °C 29.8in /  1008.5hPa Calm   2mph /  3.2km/h 97% 0in /  0.0mm 0 W/m2
07:21 45.3 °F /  7.4 °C 44.6 °F /  7 °C 29.8in /  1008.5hPa ENE 0.9mph /  1.4km/h 3mph /  4.8km/h 97% 0in /  0.0mm 0 W/m2
07:26 45.3 °F /  7.4 °C 44.6 °F /  7 °C 29.8in /  1008.5hPa Calm     97% 0in /  0.0mm 0 W/m2
07:31 45.3 °F /  7.4 °C 44.6 °F /  7 °C 29.8in /  1008.5hPa Calm   2mph /  3.2km/h 97% 0in /  0.0mm 0 W/m2
07:36 45.3 °F /  7.4 °C 44.6 °F /  7 °C 29.8in /  1008.5hPa Calm     97% 0in /  0.0mm 0 W/m2
07:41 45.3 °F /  7.4 °C 44.6 °F /  7 °C 29.8in /  1008.5hPa Calm     97% 0in /  0.0mm 0 W/m2
07:46 45.3 °F /  7.4 °C 44.6 °F /  7 °C 29.8in /  1008.5hPa Calm     97% 0.01in /  0.2mm 0 W/m2
07:51 45.3 °F /  7.4 °C 44.6 °F /  7 °C 29.8in /  1008.5hPa Calm     97% 0.01in /  0.2mm 0 W/m2
07:56 45.3 °F /  7.4 °C 44.6 °F /  7 °C 29.8in /  1008.8hPa Calm     97% 0.01in /  0.2mm 0 W/m2
08:01 45.1 °F /  7.3 °C 44.4 °F /  6.9 °C 29.8in /  1008.8hPa Calm     97% 0.02in /  0.5mm 0 W/m2
08:06 45.1 °F /  7.3 °C 44.4 °F /  6.9 °C 29.8in /  1008.8hPa Calm     97% 0.02in /  0.5mm 0 W/m2
08:11 45.1 °F /  7.3 °C 44.4 °F /  6.9 °C 29.8in /  1008.8hPa Calm     97% 0.02in /  0.5mm 0 W/m2
08:16 45.1 °F /  7.3 °C 44.4 °F /  6.9 °C 29.8in /  1008.8hPa Calm     97% 0.02in /  0.5mm 0 W/m2
08:22 45.3 °F /  7.4 °C 44.6 °F /  7 °C 29.8in /  1008.8hPa Calm     97% 0.02in /  0.5mm 0 W/m2
08:27 45.1 °F /  7.3 °C 44.4 °F /  6.9 °C 29.8in /  1008.8hPa Calm     97% 0.02in /  0.5mm 0 W/m2
08:32 45.1 °F /  7.3 °C 44.4 °F /  6.9 °C 29.8in /  1008.8hPa Calm     97% 0.02in /  0.5mm 0 W/m2
08:37 45.1 °F /  7.3 °C 44.4 °F /  6.9 °C 29.8in /  1008.8hPa Calm     97% 0.02in /  0.5mm 0 W/m2
08:42 45.3 °F /  7.4 °C 44.6 °F /  7 °C 29.8in /  1008.8hPa Calm     97% 0.03in /  0.8mm 0 W/m2
08:47 45.3 °F /  7.4 °C 44.6 °F /  7 °C 29.8in /  1008.8hPa Calm     97% 0.03in /  0.8mm 0 W/m2
08:52 45.3 °F /  7.4 °C 44.6 °F /  7 °C 29.8in /  1008.8hPa Calm     97% 0.03in /  0.8mm 7 W/m2
08:57 45.3 °F /  7.4 °C 44.6 °F /  7 °C 29.8in /  1008.8hPa Calm     97% 0.04in /  1.0mm 11 W/m2
09:02 45.3 °F /  7.4 °C 44.6 °F /  7 °C 29.8in /  1008.8hPa Calm     97% 0.03in /  0.8mm 16 W/m2
09:07 45.3 °F /  7.4 °C 44.6 °F /  7 °C 29.8in /  1008.8hPa Calm     97% 0.03in /  0.8mm 23 W/m2
09:12 45.5 °F /  7.5 °C 44.8 °F /  7.1 °C 29.8in /  1008.8hPa Calm     97% 0.02in /  0.5mm 25 W/m2
09:17 45.7 °F /  7.6 °C 45 °F /  7.2 °C 29.8in /  1009.1hPa Calm     97% 0.02in /  0.5mm 21 W/m2
09:22 45.7 °F /  7.6 °C 45.1 °F /  7.3 °C 29.8in /  1009.1hPa Calm     98% 0.03in /  0.8mm 16 W/m2
09:27 45.9 °F /  7.7 °C 45.3 °F /  7.4 °C 29.8in /  1009.1hPa Calm     98% 0.03in /  0.8mm 12 W/m2
09:32 46 °F /  7.8 °C 45.3 °F /  7.4 °C 29.8in /  1009.1hPa Calm     97% 0.03in /  0.8mm 11 W/m2
09:37 46.2 °F /  7.9 °C 45.5 °F /  7.5 °C 29.8in /  1009.1hPa Calm     97% 0.03in /  0.8mm 9 W/m2
09:42 46.2 °F /  7.9 °C 45.7 °F /  7.6 °C 29.8in /  1009.1hPa Calm   1mph /  1.6km/h 98% 0.02in /  0.5mm 11 W/m2
09:47 46.6 °F /  8.1 °C 46 °F /  7.8 °C 29.8in /  1009.1hPa East 0.9mph /  1.4km/h 2mph /  3.2km/h 98% 0.02in /  0.5mm 7 W/m2
09:52 46.8 °F /  8.2 °C 46.2 °F /  7.9 °C 29.8in /  1009.1hPa East 2mph /  3.2km/h 2mph /  3.2km/h 98% 0.02in /  0.5mm 12 W/m2
09:57 46.9 °F /  8.3 °C 46.4 °F /  8 °C 29.8in /  1009.1hPa East 0.9mph /  1.4km/h 2mph /  3.2km/h 98% 0.02in /  0.5mm 16 W/m2
10:02 46.9 °F /  8.3 °C 46.4 °F /  8 °C 29.8in /  1009.5hPa Calm   3mph /  4.8km/h 98% 0.02in /  0.5mm 12 W/m2
10:07 47.1 °F /  8.4 °C 46.6 °F /  8.1 °C 29.8in /  1009.5hPa ENE 2mph /  3.2km/h 4mph /  6.4km/h 98% 0.02in /  0.5mm 12 W/m2
10:12 47.1 °F /  8.4 °C 46.6 °F /  8.1 °C 29.8in /  1009.5hPa ESE 2mph /  3.2km/h 3mph /  4.8km/h 98% 0.03in /  0.8mm 11 W/m2
10:17 47.1 °F /  8.4 °C 46.6 °F /  8.1 °C 29.8in /  1009.5hPa ENE 0.9mph /  1.4km/h 2mph /  3.2km/h 98% 0.03in /  0.8mm 19 W/m2
10:22 47.1 °F /  8.4 °C 46.6 °F /  8.1 °C 29.8in /  1009.5hPa East 0.9mph /  1.4km/h 3mph /  4.8km/h 98% 0.03in /  0.8mm 25 W/m2
10:27 47.3 °F /  8.5 °C 46.8 °F /  8.2 °C 29.8in /  1009.8hPa ENE 2mph /  3.2km/h 3mph /  4.8km/h 98% 0.03in /  0.8mm 30 W/m2
10:32 47.3 °F /  8.5 °C 46.6 °F /  8.1 °C 29.8in /  1009.5hPa East 2mph /  3.2km/h 2mph /  3.2km/h 97% 0.04in /  1.0mm 28 W/m2
10:42 47.5 °F /  8.6 °C 46.9 °F /  8.3 °C 29.8in /  1009.8hPa ENE 0.9mph /  1.4km/h 3mph /  4.8km/h 98% 0.05in /  1.3mm 25 W/m2
10:47 47.5 °F /  8.6 °C 46.9 °F /  8.3 °C 29.8in /  1009.8hPa NE 0.9mph /  1.4km/h 2mph /  3.2km/h 98% 0.06in /  1.5mm 23 W/m2
10:52 47.7 °F /  8.7 °C 47.1 °F /  8.4 °C 29.8in /  1009.8hPa East 2.9mph /  4.7km/h 4mph /  6.4km/h 98% 0.06in /  1.5mm 26 W/m2
10:57 47.7 °F /  8.7 °C 47.1 °F /  8.4 °C 29.8in /  1009.8hPa East 2mph /  3.2km/h 3mph /  4.8km/h 98% 0.06in /  1.5mm 39 W/m2
11:02 47.8 °F /  8.8 °C 47.3 °F /  8.5 °C 29.8in /  1009.8hPa East 0.9mph /  1.4km/h 4mph /  6.4km/h 98% 0.06in /  1.5mm 40 W/m2
11:07 47.8 °F /  8.8 °C 47.3 °F /  8.5 °C 29.8in /  1010.2hPa ESE 0.9mph /  1.4km/h 2mph /  3.2km/h 98% 0.06in /  1.5mm 33 W/m2
11:12 47.8 °F /  8.8 °C 47.3 °F /  8.5 °C 29.8in /  1010.2hPa NNE 0.9mph /  1.4km/h 3mph /  4.8km/h 98% 0.06in /  1.5mm 30 W/m2
11:17 48 °F /  8.9 °C 47.5 °F /  8.6 °C 29.8in /  1010.2hPa NE 0.9mph /  1.4km/h 3mph /  4.8km/h 98% 0.06in /  1.5mm 39 W/m2
11:22 48 °F /  8.9 °C 47.5 °F /  8.6 °C 29.8in /  1010.2hPa ENE 2mph /  3.2km/h 3mph /  4.8km/h 98% 0.06in /  1.5mm 30 W/m2
11:27 48.2 °F /  9 °C 47.7 °F /  8.7 °C 29.8in /  1010.2hPa NE 2mph /  3.2km/h 3mph /  4.8km/h 98% 0.06in /  1.5mm 35 W/m2
11:32 48.4 °F /  9.1 °C 47.8 °F /  8.8 °C 29.8in /  1010.2hPa Calm   3mph /  4.8km/h 98% 0.06in /  1.5mm 37 W/m2
11:37 48.6 °F /  9.2 °C 48 °F /  8.9 °C 29.8in /  1010.2hPa East 2mph /  3.2km/h 4mph /  6.4km/h 98% 0.05in /  1.3mm 33 W/m2
11:42 48.6 °F /  9.2 °C 48 °F /  8.9 °C 29.8in /  1010.2hPa Calm   2mph /  3.2km/h 98% 0.06in /  1.5mm 32 W/m2
11:47 48.7 °F /  9.3 °C 48.2 °F /  9 °C 29.8in /  1010.2hPa East 0.9mph /  1.4km/h 4mph /  6.4km/h 98% 0.06in /  1.5mm 30 W/m2
11:52 48.9 °F /  9.4 °C 48.4 °F /  9.1 °C 29.8in /  1010.2hPa NNE 0.9mph /  1.4km/h 1mph /  1.6km/h 98% 0.05in /  1.3mm 33 W/m2
11:57 49.1 °F /  9.5 °C 48.6 °F /  9.2 °C 29.8in /  1010.2hPa Calm   1mph /  1.6km/h 98% 0.06in /  1.5mm 39 W/m2
12:02 49.3 °F /  9.6 °C 48.7 °F /  9.3 °C 29.8in /  1010.2hPa NNE 2mph /  3.2km/h 3mph /  4.8km/h 98% 0.06in /  1.5mm 56 W/m2
12:07 49.5 °F /  9.7 °C 48.9 °F /  9.4 °C 29.8in /  1010.2hPa Calm   1mph /  1.6km/h 98% 0.06in /  1.5mm 42 W/m2
12:12 49.6 °F /  9.8 °C 49.1 °F /  9.5 °C 29.8in /  1010.2hPa NE 0.9mph /  1.4km/h 3mph /  4.8km/h 98% 0.05in /  1.3mm 40 W/m2
12:17 49.6 °F /  9.8 °C 49.1 °F /  9.5 °C 29.8in /  1010.2hPa East 0.9mph /  1.4km/h 3mph /  4.8km/h 98% 0.05in /  1.3mm 39 W/m2
12:22 49.8 °F /  9.9 °C 49.3 °F /  9.6 °C 29.8in /  1010.2hPa NNW 0.9mph /  1.4km/h 2mph /  3.2km/h 98% 0.05in /  1.3mm 35 W/m2
12:27 49.8 °F /  9.9 °C 49.3 °F /  9.6 °C 29.8in /  1010.2hPa West 2mph /  3.2km/h 4mph /  6.4km/h 98% 0.04in /  1.0mm 44 W/m2
12:32 50 °F /  10 °C 49.5 °F /  9.7 °C 29.8in /  1010.2hPa NNW 4mph /  6.4km/h 4mph /  6.4km/h 98% 0.04in /  1.0mm 56 W/m2
12:37 50.2 °F /  10.1 °C 49.6 °F /  9.8 °C 29.8in /  1010.2hPa North 2mph /  3.2km/h 2mph /  3.2km/h 98% 0.04in /  1.0mm 35 W/m2
12:42 50.2 °F /  10.1 °C 49.6 °F /  9.8 °C 29.8in /  1010.2hPa Calm   1mph /  1.6km/h 98% 0.04in /  1.0mm 28 W/m2
12:47 50.2 °F /  10.1 °C 49.6 °F /  9.8 °C 29.8in /  1010.2hPa North 0.9mph /  1.4km/h 2mph /  3.2km/h 98% 0.03in /  0.8mm 21 W/m2
12:52 50.2 °F /  10.1 °C 49.6 °F /  9.8 °C 29.8in /  1010.2hPa Calm   1mph /  1.6km/h 98% 0.04in /  1.0mm 18 W/m2
12:57 50.4 °F /  10.2 °C 49.8 °F /  9.9 °C 29.8in /  1010.2hPa WNW 2mph /  3.2km/h 6mph /  9.7km/h 98% 0.03in /  0.8mm 19 W/m2
13:02 50.4 °F /  10.2 °C 49.5 °F /  9.7 °C 29.8in /  1010.2hPa Calm   2mph /  3.2km/h 97% 0.02in /  0.5mm 25 W/m2
13:07 50.4 °F /  10.2 °C 49.8 °F /  9.9 °C 29.8in /  1010.2hPa NNE 0.9mph /  1.4km/h 4mph /  6.4km/h 98% 0.02in /  0.5mm 11 W/m2
13:12 50.4 °F /  10.2 °C 49.5 °F /  9.7 °C 29.8in /  1010.2hPa North 0.9mph /  1.4km/h 2mph /  3.2km/h 97% 0.02in /  0.5mm 21 W/m2
13:17 50.4 °F /  10.2 °C 49.5 °F /  9.7 °C 29.8in /  1010.2hPa North 0.9mph /  1.4km/h 4mph /  6.4km/h 97% 0.02in /  0.5mm 25 W/m2
13:22 50.5 °F /  10.3 °C 49.6 °F /  9.8 °C 29.8in /  1010.2hPa ENE 0.9mph /  1.4km/h 3mph /  4.8km/h 97% 0.02in /  0.5mm 35 W/m2
13:27 50.5 °F /  10.3 °C 49.6 °F /  9.8 °C 29.8in /  1010.2hPa Calm   2mph /  3.2km/h 97% 0.02in /  0.5mm 28 W/m2
13:32 50.5 °F /  10.3 °C 49.6 °F /  9.8 °C 29.8in /  1010.2hPa East 0.9mph /  1.4km/h 3mph /  4.8km/h 97% 0.02in /  0.5mm 23 W/m2
13:37 50.5 °F /  10.3 °C 49.6 °F /  9.8 °C 29.8in /  1010.2hPa NW 0.9mph /  1.4km/h 2mph /  3.2km/h 97% 0.02in /  0.5mm 39 W/m2
13:42 50.7 °F /  10.4 °C 49.8 °F /  9.9 °C 29.8in /  1010.2hPa North 2.9mph /  4.7km/h 5mph /  8km/h 97% 0.01in /  0.2mm 32 W/m2
13:47 50.7 °F /  10.4 °C 49.8 °F /  9.9 °C 29.8in /  1010.2hPa Calm   3mph /  4.8km/h 97% 0.01in /  0.2mm 44 W/m2
13:52 50.7 °F /  10.4 °C 49.8 °F /  9.9 °C 29.8in /  1010.2hPa NNW 2mph /  3.2km/h 6mph /  9.7km/h 97% 0in /  0.0mm 53 W/m2
13:57 50.7 °F /  10.4 °C 49.6 °F /  9.8 °C 29.8in /  1010.5hPa NNE 2.9mph /  4.7km/h 3mph /  4.8km/h 96% 0in /  0.0mm 69 W/m2
14:02 50.9 °F /  10.5 °C 49.8 °F /  9.9 °C 29.8in /  1010.5hPa North 0.9mph /  1.4km/h 3mph /  4.8km/h 96% 0in /  0.0mm 74 W/m2
14:07 50.7 °F /  10.4 °C 49.6 °F /  9.8 °C 29.8in /  1010.5hPa ENE 4mph /  6.4km/h 6mph /  9.7km/h 96% 0in /  0.0mm 49 W/m2
14:12 50.7 °F /  10.4 °C 49.6 °F /  9.8 °C 29.8in /  1010.5hPa WNW 2.9mph /  4.7km/h 6mph /  9.7km/h 96% 0in /  0.0mm 69 W/m2
14:17 50.9 °F /  10.5 °C 49.8 °F /  9.9 °C 29.8in /  1010.5hPa NNW 4mph /  6.4km/h 5mph /  8km/h 96% 0.01in /  0.2mm 90 W/m2
14:22 50.9 °F /  10.5 °C 49.8 °F /  9.9 °C 29.9in /  1010.8hPa West 0.9mph /  1.4km/h 3mph /  4.8km/h 96% 0.01in /  0.2mm 32 W/m2
14:27 50.9 °F /  10.5 °C 49.8 °F /  9.9 °C 29.9in /  1010.8hPa NE 0.9mph /  1.4km/h 3mph /  4.8km/h 96% 0.01in /  0.2mm 33 W/m2
14:32 50.7 °F /  10.4 °C 49.6 °F /  9.8 °C 29.9in /  1010.8hPa West 2.9mph /  4.7km/h 11mph /  17.7km/h 96% 0.01in /  0.2mm 42 W/m2
14:37 50.7 °F /  10.4 °C 49.6 °F /  9.8 °C 29.9in /  1010.8hPa WNW 2mph /  3.2km/h 3mph /  4.8km/h 96% 0.01in /  0.2mm 21 W/m2
14:42 50.7 °F /  10.4 °C 49.6 °F /  9.8 °C 29.9in /  1010.8hPa Calm   6mph /  9.7km/h 96% 0.01in /  0.2mm 16 W/m2
14:47 50.7 °F /  10.4 °C 49.6 °F /  9.8 °C 29.9in /  1011.2hPa West 2mph /  3.2km/h 4mph /  6.4km/h 96% 0.02in /  0.5mm 12 W/m2
14:52 50.7 °F /  10.4 °C 49.6 °F /  9.8 °C 29.9in /  1010.8hPa WNW 4mph /  6.4km/h 4mph /  6.4km/h 96% 0.02in /  0.5mm 30 W/m2
14:58 50.7 °F /  10.4 °C 49.6 °F /  9.8 °C 29.9in /  1011.2hPa WSW 0.9mph /  1.4km/h 2mph /  3.2km/h 96% 0.02in /  0.5mm 37 W/m2
15:03 50.7 °F /  10.4 °C 49.6 °F /  9.8 °C 29.9in /  1011.2hPa West 2.9mph /  4.7km/h 4mph /  6.4km/h 96% 0.02in /  0.5mm 42 W/m2
15:08 50.7 °F /  10.4 °C 49.3 °F /  9.6 °C 29.9in /  1011.2hPa WNW 2.9mph /  4.7km/h 4mph /  6.4km/h 95% 0.02in /  0.5mm 46 W/m2
15:13 50.5 °F /  10.3 °C 49.1 °F /  9.5 °C 29.9in /  1011.5hPa Calm   4mph /  6.4km/h 95% 0.02in /  0.5mm 37 W/m2
15:18 50.5 °F /  10.3 °C 49.1 °F /  9.5 °C 29.9in /  1011.5hPa WNW 2.9mph /  4.7km/h 4mph /  6.4km/h 95% 0.01in /  0.2mm 30 W/m2
15:23 50.5 °F /  10.3 °C 49.1 °F /  9.5 °C 29.9in /  1011.5hPa West 2.9mph /  4.7km/h 7mph /  11.3km/h 95% 0.01in /  0.2mm 26 W/m2
15:28 50.5 °F /  10.3 °C 49.1 °F /  9.5 °C 29.9in /  1011.9hPa WSW 0.9mph /  1.4km/h 3mph /  4.8km/h 95% 0.01in /  0.2mm 28 W/m2
15:33 50.5 °F /  10.3 °C 49.1 °F /  9.5 °C 29.9in /  1011.9hPa WNW 4.9mph /  7.9km/h 9mph /  14.5km/h 95% 0.01in /  0.2mm 23 W/m2
15:38 50.5 °F /  10.3 °C 49.1 °F /  9.5 °C 29.9in /  1011.9hPa WNW 4mph /  6.4km/h 7mph /  11.3km/h 95% 0.01in /  0.2mm 26 W/m2
15:43 50.4 °F /  10.2 °C 48.9 °F /  9.4 °C 29.9in /  1011.9hPa West 4mph /  6.4km/h 8mph /  12.9km/h 95% 0.01in /  0.2mm 26 W/m2
15:48 50.4 °F /  10.2 °C 48.9 °F /  9.4 °C 29.9in /  1012.2hPa West 2mph /  3.2km/h 4mph /  6.4km/h 95% 0in /  0.0mm 18 W/m2
15:53 50.4 °F /  10.2 °C 48.9 °F /  9.4 °C 29.9in /  1012.2hPa WSW 0.9mph /  1.4km/h 5mph /  8km/h 95% 0in /  0.0mm 16 W/m2
15:58 50.4 °F /  10.2 °C 48.9 °F /  9.4 °C 29.9in /  1012.2hPa WNW 4mph /  6.4km/h 6mph /  9.7km/h 95% 0in /  0.0mm 26 W/m2
16:03 50.4 °F /  10.2 °C 48.9 °F /  9.4 °C 29.9in /  1012.2hPa NW 4mph /  6.4km/h 4mph /  6.4km/h 95% 0in /  0.0mm 33 W/m2
16:08 50.4 °F /  10.2 °C 48.9 °F /  9.4 °C 29.9in /  1012.5hPa WNW 2mph /  3.2km/h 3mph /  4.8km/h 95% 0in /  0.0mm 26 W/m2
16:13 50.4 °F /  10.2 °C 48.9 °F /  9.4 °C 29.9in /  1012.5hPa West 4mph /  6.4km/h 4mph /  6.4km/h 95% 0in /  0.0mm 26 W/m2
16:18 50.4 °F /  10.2 °C 48.7 °F /  9.3 °C 29.9in /  1012.5hPa SSW 0.9mph /  1.4km/h 4mph /  6.4km/h 94% 0in /  0.0mm 14 W/m2
16:23 50.2 °F /  10.1 °C 48.6 °F /  9.2 °C 29.9in /  1012.9hPa SW 0.9mph /  1.4km/h 6mph /  9.7km/h 94% 0in /  0.0mm 11 W/m2
16:28 50.2 °F /  10.1 °C 48.7 °F /  9.3 °C 29.9in /  1012.9hPa WSW 2.9mph /  4.7km/h 4mph /  6.4km/h 95% 0in /  0.0mm 7 W/m2
16:33 50.2 °F /  10.1 °C 48.7 °F /  9.3 °C 29.9in /  1012.9hPa WSW 2mph /  3.2km/h 3mph /  4.8km/h 95% 0in /  0.0mm 0 W/m2
16:38 50 °F /  10 °C 48.6 °F /  9.2 °C 29.9in /  1012.9hPa WNW 2.9mph /  4.7km/h 4mph /  6.4km/h 95% 0in /  0.0mm 0 W/m2
16:43 50 °F /  10 °C 48.6 °F /  9.2 °C 29.9in /  1012.9hPa Calm   2mph /  3.2km/h 95% 0in /  0.0mm 0 W/m2
16:48 49.8 °F /  9.9 °C 48.4 °F /  9.1 °C 29.9in /  1012.9hPa Calm     95% 0in /  0.0mm 0 W/m2
16:53 49.8 °F /  9.9 °C 48.4 °F /  9.1 °C 29.9in /  1012.9hPa Calm   1mph /  1.6km/h 95% 0in /  0.0mm 0 W/m2
16:58 49.8 °F /  9.9 °C 48.4 °F /  9.1 °C 29.9in /  1013.2hPa Calm     95% 0in /  0.0mm 0 W/m2
17:03 49.6 °F /  9.8 °C 48.2 °F /  9 °C 29.9in /  1013.2hPa Calm     95% 0in /  0.0mm 0 W/m2
17:08 49.6 °F /  9.8 °C 48.2 °F /  9 °C 29.9in /  1013.2hPa Calm   2mph /  3.2km/h 95% 0.01in /  0.2mm 0 W/m2
17:13 49.5 °F /  9.7 °C 48 °F /  8.9 °C 29.9in /  1013.2hPa Calm   1mph /  1.6km/h 95% 0.01in /  0.2mm 0 W/m2
17:18 49.5 °F /  9.7 °C 48 °F /  8.9 °C 29.9in /  1013.2hPa West 0.9mph /  1.4km/h 2mph /  3.2km/h 95% 0.02in /  0.5mm 0 W/m2
17:23 49.5 °F /  9.7 °C 48 °F /  8.9 °C 29.9in /  1013.2hPa West 0.9mph /  1.4km/h 1mph /  1.6km/h 95% 0.02in /  0.5mm 0 W/m2
17:28 49.3 °F /  9.6 °C 47.8 °F /  8.8 °C 29.9in /  1013.2hPa Calm     95% 0.02in /  0.5mm 0 W/m2
17:33 49.3 °F /  9.6 °C 47.8 °F /  8.8 °C 29.9in /  1013.2hPa West 0.9mph /  1.4km/h 3mph /  4.8km/h 95% 0.02in /  0.5mm 0 W/m2
17:38 49.1 °F /  9.5 °C 48 °F /  8.9 °C 29.9in /  1013.2hPa WNW 2.9mph /  4.7km/h 4mph /  6.4km/h 96% 0.02in /  0.5mm 0 W/m2
17:43 49.1 °F /  9.5 °C 48 °F /  8.9 °C 29.9in /  1013.5hPa WNW 0.9mph /  1.4km/h 3mph /  4.8km/h 96% 0.02in /  0.5mm 0 W/m2
17:48 48.9 °F /  9.4 °C 47.8 °F /  8.8 °C 29.9in /  1013.5hPa WSW 0.9mph /  1.4km/h 2mph /  3.2km/h 96% 0.02in /  0.5mm 0 W/m2
17:53 48.9 °F /  9.4 °C 47.5 °F /  8.6 °C 29.9in /  1013.5hPa Calm   1mph /  1.6km/h 95% 0.02in /  0.5mm 0 W/m2
17:58 48.7 °F /  9.3 °C 47.3 °F /  8.5 °C 29.9in /  1013.5hPa West 0.9mph /  1.4km/h 2mph /  3.2km/h 95% 0.02in /  0.5mm 0 W/m2
18:03 48.7 °F /  9.3 °C 47.3 °F /  8.5 °C 29.9in /  1013.5hPa Calm     95% 0.02in /  0.5mm 0 W/m2
18:08 48.6 °F /  9.2 °C 47.1 °F /  8.4 °C 29.9in /  1013.5hPa Calm     95% 0.01in /  0.2mm 0 W/m2
18:13 48.4 °F /  9.1 °C 46.9 °F /  8.3 °C 29.9in /  1013.5hPa Calm     95% 0.01in /  0.2mm 0 W/m2
18:18 48.4 °F /  9.1 °C 47.3 °F /  8.5 °C 29.9in /  1013.5hPa Calm     96% 0in /  0.0mm 0 W/m2
18:23 48.2 °F /  9 °C 46.8 °F /  8.2 °C 29.9in /  1013.9hPa Calm   1mph /  1.6km/h 95% 0in /  0.0mm 0 W/m2
18:28 48 °F /  8.9 °C 46.6 °F /  8.1 °C 29.9in /  1013.5hPa Calm   3mph /  4.8km/h 95% 0in /  0.0mm 0 W/m2
18:33 48 °F /  8.9 °C 46.9 °F /  8.3 °C 29.9in /  1013.5hPa Calm     96% 0in /  0.0mm 0 W/m2
18:38 48 °F /  8.9 °C 46.9 °F /  8.3 °C 29.9in /  1013.5hPa Calm   3mph /  4.8km/h 96% 0in /  0.0mm 0 W/m2
18:43 47.8 °F /  8.8 °C 46.4 °F /  8 °C 29.9in /  1013.5hPa Calm   1mph /  1.6km/h 95% 0in /  0.0mm 0 W/m2
18:48 47.5 °F /  8.6 °C 46 °F /  7.8 °C 29.9in /  1013.5hPa Calm     95% 0in /  0.0mm 0 W/m2
18:53 47.1 °F /  8.4 °C 45.7 °F /  7.6 °C 29.9in /  1013.5hPa Calm     95% 0in /  0.0mm 0 W/m2
18:58 46.9 °F /  8.3 °C 45.5 °F /  7.5 °C 29.9in /  1013.9hPa Calm   1mph /  1.6km/h 95% 0in /  0.0mm 0 W/m2
19:03 46.8 °F /  8.2 °C 45.7 °F /  7.6 °C 29.9in /  1013.9hPa Calm     96% 0in /  0.0mm 0 W/m2
19:08 46.6 °F /  8.1 °C 45.5 °F /  7.5 °C 29.9in /  1013.9hPa Calm     96% 0in /  0.0mm 0 W/m2
19:13 46.4 °F /  8 °C 45.3 °F /  7.4 °C 29.9in /  1013.9hPa Calm     96% 0in /  0.0mm 0 W/m2
19:18 46.2 °F /  7.9 °C 45.1 °F /  7.3 °C 29.9in /  1013.9hPa Calm     96% 0in /  0.0mm 0 W/m2
19:23 46 °F /  7.8 °C 45 °F /  7.2 °C 29.9in /  1013.9hPa Calm     96% 0in /  0.0mm 0 W/m2
19:28 45.9 °F /  7.7 °C 44.4 °F /  6.9 °C 29.9in /  1013.9hPa Calm     95% 0in /  0.0mm 0 W/m2
19:33 45.5 °F /  7.5 °C 44.4 °F /  6.9 °C 30in /  1014.2hPa Calm     96% 0in /  0.0mm 0 W/m2
19:38 45.1 °F /  7.3 °C 43.9 °F /  6.6 °C 30in /  1014.2hPa WNW 0.9mph /  1.4km/h 2mph /  3.2km/h 95% 0in /  0.0mm 0 W/m2
19:43 45 °F /  7.2 °C 43.9 °F /  6.6 °C 30in /  1014.2hPa Calm   2mph /  3.2km/h 96% 0in /  0.0mm 0 W/m2
19:48 45 °F /  7.2 °C 43.9 °F /  6.6 °C 30in /  1014.6hPa Calm     96% 0in /  0.0mm 0 W/m2
19:53 45 °F /  7.2 °C 43.9 °F /  6.6 °C 30in /  1014.6hPa Calm     96% 0in /  0.0mm 0 W/m2
19:58 45 °F /  7.2 °C 43.9 °F /  6.6 °C 30in /  1014.6hPa Calm     96% 0in /  0.0mm 0 W/m2
20:03 45 °F /  7.2 °C 43.9 °F /  6.6 °C 30in /  1014.6hPa Calm   1mph /  1.6km/h 96% 0in /  0.0mm 0 W/m2
20:08 45 °F /  7.2 °C 43.9 °F /  6.6 °C 30in /  1014.6hPa Calm   1mph /  1.6km/h 96% 0in /  0.0mm 0 W/m2
20:13 45 °F /  7.2 °C 43.9 °F /  6.6 °C 30in /  1014.6hPa Calm     96% 0in /  0.0mm 0 W/m2
20:18 45.1 °F /  7.3 °C 44.1 °F /  6.7 °C 30in /  1014.6hPa Calm   1mph /  1.6km/h 96% 0in /  0.0mm 0 W/m2
20:23 45.1 °F /  7.3 °C 44.4 °F /  6.9 °C 30in /  1014.6hPa Calm   2mph /  3.2km/h 97% 0in /  0.0mm 0 W/m2
20:28 45.3 °F /  7.4 °C 44.6 °F /  7 °C 30in /  1014.6hPa Calm     97% 0in /  0.0mm 0 W/m2
20:33 45.5 °F /  7.5 °C 44.8 °F /  7.1 °C 30in /  1014.6hPa Calm   2mph /  3.2km/h 97% 0in /  0.0mm 0 W/m2
20:38 45.5 °F /  7.5 °C 44.8 °F /  7.1 °C 30in /  1014.6hPa Calm     97% 0in /  0.0mm 0 W/m2
20:43 45.5 °F /  7.5 °C 44.8 °F /  7.1 °C 30in /  1014.6hPa Calm     97% 0in /  0.0mm 0 W/m2
20:48 45.3 °F /  7.4 °C 44.6 °F /  7 °C 30in /  1014.6hPa Calm     97% 0in /  0.0mm 0 W/m2
20:53 45.1 °F /  7.3 °C 44.4 °F /  6.9 °C 30in /  1014.6hPa Calm     97% 0in /  0.0mm 0 W/m2
20:58 45 °F /  7.2 °C 43.9 °F /  6.6 °C 30in /  1014.6hPa Calm     96% 0in /  0.0mm 0 W/m2
21:03 44.8 °F /  7.1 °C 43.7 °F /  6.5 °C 30in /  1014.6hPa Calm     96% 0in /  0.0mm 0 W/m2
21:08 44.6 °F /  7 °C 43.9 °F /  6.6 °C 30in /  1014.6hPa Calm     97% 0in /  0.0mm 0 W/m2
21:13 44.4 °F /  6.9 °C 43.3 °F /  6.3 °C 30in /  1014.6hPa Calm     96% 0in /  0.0mm 0 W/m2
21:18 44.2 °F /  6.8 °C 43.2 °F /  6.2 °C 30in /  1014.6hPa Calm     96% 0in /  0.0mm 0 W/m2
21:23 44.1 °F /  6.7 °C 43 °F /  6.1 °C 30in /  1014.9hPa Calm     96% 0in /  0.0mm 0 W/m2
21:28 43.9 °F /  6.6 °C 42.8 °F /  6 °C 30in /  1014.6hPa Calm     96% 0in /  0.0mm 0 W/m2
21:33 43.5 °F /  6.4 °C 42.4 °F /  5.8 °C 30in /  1014.6hPa Calm     96% 0in /  0.0mm 0 W/m2
21:38 43.5 °F /  6.4 °C 42.8 °F /  6 °C 30in /  1014.6hPa Calm     97% 0in /  0.0mm 0 W/m2
21:43 43.7 °F /  6.5 °C 43 °F /  6.1 °C 30in /  1014.6hPa Calm     97% 0in /  0.0mm 0 W/m2
21:48 43.7 °F /  6.5 °C 43 °F /  6.1 °C 30in /  1014.6hPa Calm     97% 0in /  0.0mm 0 W/m2
21:53 43.5 °F /  6.4 °C 42.8 °F /  6 °C 30in /  1014.6hPa Calm     97% 0in /  0.0mm 0 W/m2
21:58 43.3 °F /  6.3 °C 42.6 °F /  5.9 °C 30in /  1014.6hPa Calm     97% 0in /  0.0mm 0 W/m2
22:03 43.3 °F /  6.3 °C 42.6 °F /  5.9 °C 30in /  1014.6hPa Calm     97% 0in /  0.0mm 0 W/m2
22:08 43.3 °F /  6.3 °C 42.6 °F /  5.9 °C 30in /  1014.6hPa Calm   1mph /  1.6km/h 97% 0in /  0.0mm 0 W/m2
22:13 43.3 °F /  6.3 °C 42.6 °F /  5.9 °C 30in /  1014.6hPa Calm     97% 0in /  0.0mm 0 W/m2
22:18 43.2 °F /  6.2 °C 42.4 °F /  5.8 °C 30in /  1014.6hPa East 2mph /  3.2km/h 4mph /  6.4km/h 97% 0.01in /  0.2mm 0 W/m2
22:23 43.3 °F /  6.3 °C 42.6 °F /  5.9 °C 30in /  1014.6hPa Calm     97% 0.01in /  0.2mm 0 W/m2
22:28 43.3 °F /  6.3 °C 42.6 °F /  5.9 °C 30in /  1014.6hPa Calm   4mph /  6.4km/h 97% 0.01in /  0.2mm 0 W/m2
22:33 43.3 °F /  6.3 °C 42.6 °F /  5.9 °C 30in /  1014.6hPa Calm     97% 0.01in /  0.2mm 0 W/m2
22:38 43.3 °F /  6.3 °C 42.6 °F /  5.9 °C 30in /  1014.6hPa Calm   2mph /  3.2km/h 97% 0.01in /  0.2mm 0 W/m2
22:43 43.2 °F /  6.2 °C 42.4 °F /  5.8 °C 30in /  1014.6hPa Calm     97% 0.01in /  0.2mm 0 W/m2
22:48 43.2 °F /  6.2 °C 42.4 °F /  5.8 °C 30in /  1014.6hPa Calm     97% 0.01in /  0.2mm 0 W/m2
22:53 43.2 °F /  6.2 °C 42.4 °F /  5.8 °C 30in /  1014.6hPa Calm     97% 0.01in /  0.2mm 0 W/m2
22:58 43 °F /  6.1 °C 42.3 °F /  5.7 °C 30in /  1014.6hPa Calm     97% 0.01in /  0.2mm 0 W/m2
23:03 42.8 °F /  6 °C 42.1 °F /  5.6 °C 30in /  1014.6hPa Calm     97% 0.01in /  0.2mm 0 W/m2
23:08 42.6 °F /  5.9 °C 41.9 °F /  5.5 °C 30in /  1014.6hPa SW 0.9mph /  1.4km/h 2mph /  3.2km/h 97% 0.01in /  0.2mm 0 W/m2
23:13 42.6 °F /  5.9 °C 41.9 °F /  5.5 °C 30in /  1014.6hPa Calm   2mph /  3.2km/h 97% 0.01in /  0.2mm 0 W/m2
23:18 42.8 °F /  6 °C 42.1 °F /  5.6 °C 30in /  1014.6hPa WNW 0.9mph /  1.4km/h 1mph /  1.6km/h 97% 0in /  0.0mm 0 W/m2
23:23 43 °F /  6.1 °C 42.3 °F /  5.7 °C 30in /  1014.6hPa Calm     97% 0in /  0.0mm 0 W/m2
23:28 42.6 °F /  5.9 °C 41.9 °F /  5.5 °C 30in /  1014.9hPa Calm     97% 0in /  0.0mm 0 W/m2
23:33 42.6 °F /  5.9 °C 41.9 °F /  5.5 °C 30in /  1014.6hPa Calm     97% 0in /  0.0mm 0 W/m2
23:38 42.4 °F /  5.8 °C 41.7 °F /  5.4 °C 30in /  1014.6hPa WNW 2mph /  3.2km/h 2mph /  3.2km/h 97% 0in /  0.0mm 0 W/m2
23:43 42.3 °F /  5.7 °C 41.5 °F /  5.3 °C 30in /  1014.9hPa Calm     97% 0in /  0.0mm 0 W/m2
23:48 42.3 °F /  5.7 °C 41.5 °F /  5.3 °C 30in /  1014.9hPa Calm     97% 0in /  0.0mm 0 W/m2
23:53 42.1 °F /  5.6 °C 41.4 °F /  5.2 °C 30in /  1014.9hPa West 2mph /  3.2km/h 3mph /  4.8km/h 97% 0in /  0.0mm 0 W/m2
23:58 42.3 °F /  5.7 °C 41.5 °F /  5.3 °C 30in /  1014.9hPa WSW 2mph /  3.2km/h 3mph /  4.8km/h 97% 0in /  0.0mm 0 W/m2
Juneau County Weather
Compliments of Weather Underground - 4 mb